sensor_id;sensor_type;location;lat;lon;timestamp;temperature;humidity
70166;SHT30;57541;47.408;18.822;2022-09-16T00:00:28;17.02;96.29
70166;SHT30;57541;47.408;18.822;2022-09-16T00:01:00;17.04;96.17
70166;SHT30;57541;47.408;18.822;2022-09-16T00:01:31;17.03;96.13
70166;SHT30;57541;47.408;18.822;2022-09-16T00:02:03;17.06;96.11
70166;SHT30;57541;47.408;18.822;2022-09-16T00:02:35;17.08;96.02
70166;SHT30;57541;47.408;18.822;2022-09-16T00:03:11;17.08;95.94
70166;SHT30;57541;47.408;18.822;2022-09-16T00:03:44;17.08;95.86
70166;SHT30;57541;47.408;18.822;2022-09-16T00:04:16;17.08;95.95
70166;SHT30;57541;47.408;18.822;2022-09-16T00:04:48;17.08;95.88
70166;SHT30;57541;47.408;18.822;2022-09-16T00:05:20;17.08;95.74
70166;SHT30;57541;47.408;18.822;2022-09-16T00:05:52;17.13;96.00
70166;SHT30;57541;47.408;18.822;2022-09-16T00:06:27;17.14;96.02
70166;SHT30;57541;47.408;18.822;2022-09-16T00:06:59;17.10;96.33
70166;SHT30;57541;47.408;18.822;2022-09-16T00:07:31;17.07;96.30
70166;SHT30;57541;47.408;18.822;2022-09-16T00:08:02;17.11;96.29
70166;SHT30;57541;47.408;18.822;2022-09-16T00:08:34;17.13;96.19
70166;SHT30;57541;47.408;18.822;2022-09-16T00:09:05;17.10;96.27
70166;SHT30;57541;47.408;18.822;2022-09-16T00:09:37;17.10;96.19
70166;SHT30;57541;47.408;18.822;2022-09-16T00:10:09;17.08;96.07
70166;SHT30;57541;47.408;18.822;2022-09-16T00:10:41;17.11;96.19
70166;SHT30;57541;47.408;18.822;2022-09-16T00:11:15;17.10;96.15
70166;SHT30;57541;47.408;18.822;2022-09-16T00:11:47;17.10;96.16
70166;SHT30;57541;47.408;18.822;2022-09-16T00:12:19;17.11;96.12
70166;SHT30;57541;47.408;18.822;2022-09-16T00:12:50;17.10;96.10
70166;SHT30;57541;47.408;18.822;2022-09-16T00:13:22;17.07;96.20
70166;SHT30;57541;47.408;18.822;2022-09-16T00:13:54;17.06;96.19
70166;SHT30;57541;47.408;18.822;2022-09-16T00:14:25;17.04;96.29
70166;SHT30;57541;47.408;18.822;2022-09-16T00:14:57;17.08;96.12
70166;SHT30;57541;47.408;18.822;2022-09-16T00:15:29;17.06;95.97
70166;SHT30;57541;47.408;18.822;2022-09-16T00:16:00;17.10;96.01
70166;SHT30;57541;47.408;18.822;2022-09-16T00:16:32;17.10;96.07
70166;SHT30;57541;47.408;18.822;2022-09-16T00:17:04;17.14;96.08
70166;SHT30;57541;47.408;18.822;2022-09-16T00:17:35;17.13;96.01
70166;SHT30;57541;47.408;18.822;2022-09-16T00:18:08;17.16;96.02
70166;SHT30;57541;47.408;18.822;2022-09-16T00:18:41;17.10;95.86
70166;SHT30;57541;47.408;18.822;2022-09-16T00:19:12;17.08;95.80
70166;SHT30;57541;47.408;18.822;2022-09-16T00:19:44;17.07;95.68
70166;SHT30;57541;47.408;18.822;2022-09-16T00:20:15;17.04;95.58
70166;SHT30;57541;47.408;18.822;2022-09-16T00:20:49;17.03;95.62
70166;SHT30;57541;47.408;18.822;2022-09-16T00:21:22;17.04;95.68
70166;SHT30;57541;47.408;18.822;2022-09-16T00:21:54;17.04;95.61
70166;SHT30;57541;47.408;18.822;2022-09-16T00:22:27;17.00;95.61
70166;SHT30;57541;47.408;18.822;2022-09-16T00:22:59;16.96;95.53
70166;SHT30;57541;47.408;18.822;2022-09-16T00:23:30;16.97;95.58
70166;SHT30;57541;47.408;18.822;2022-09-16T00:24:02;16.91;95.62
70166;SHT30;57541;47.408;18.822;2022-09-16T00:24:34;16.97;95.60
70166;SHT30;57541;47.408;18.822;2022-09-16T00:25:05;16.93;95.64
70166;SHT30;57541;47.408;18.822;2022-09-16T00:25:37;16.90;95.60
70166;SHT30;57541;47.408;18.822;2022-09-16T00:26:09;16.93;95.60
70166;SHT30;57541;47.408;18.822;2022-09-16T00:26:41;16.94;95.54
70166;SHT30;57541;47.408;18.822;2022-09-16T00:27:13;16.90;95.60
70166;SHT30;57541;47.408;18.822;2022-09-16T00:27:49;16.84;95.66
70166;SHT30;57541;47.408;18.822;2022-09-16T00:28:21;16.89;95.68
70166;SHT30;57541;47.408;18.822;2022-09-16T00:28:53;16.89;95.62
70166;SHT30;57541;47.408;18.822;2022-09-16T00:29:25;16.83;95.57
70166;SHT30;57541;47.408;18.822;2022-09-16T00:29:57;16.83;95.44
70166;SHT30;57541;47.408;18.822;2022-09-16T00:30:28;16.83;95.40
70166;SHT30;57541;47.408;18.822;2022-09-16T00:31:00;16.83;95.49
70166;SHT30;57541;47.408;18.822;2022-09-16T00:31:32;16.81;95.42
70166;SHT30;57541;47.408;18.822;2022-09-16T00:32:04;16.81;95.43
70166;SHT30;57541;47.408;18.822;2022-09-16T00:32:36;16.79;95.56
70166;SHT30;57541;47.408;18.822;2022-09-16T00:33:07;16.79;95.62
70166;SHT30;57541;47.408;18.822;2022-09-16T00:33:39;16.76;95.55
70166;SHT30;57541;47.408;18.822;2022-09-16T00:34:11;16.73;95.54
70166;SHT30;57541;47.408;18.822;2022-09-16T00:34:42;16.68;95.63
70166;SHT30;57541;47.408;18.822;2022-09-16T00:35:14;16.68;95.70
70166;SHT30;57541;47.408;18.822;2022-09-16T00:35:46;16.63;95.71
70166;SHT30;57541;47.408;18.822;2022-09-16T00:36:18;16.68;95.76
70166;SHT30;57541;47.408;18.822;2022-09-16T00:36:50;16.63;95.72
70166;SHT30;57541;47.408;18.822;2022-09-16T00:37:22;16.65;95.66
70166;SHT30;57541;47.408;18.822;2022-09-16T00:37:53;16.62;95.60
70166;SHT30;57541;47.408;18.822;2022-09-16T00:38:25;16.59;95.46
70166;SHT30;57541;47.408;18.822;2022-09-16T00:38:56;16.60;95.52
70166;SHT30;57541;47.408;18.822;2022-09-16T00:39:29;16.60;95.63
70166;SHT30;57541;47.408;18.822;2022-09-16T00:40:00;16.53;95.63
70166;SHT30;57541;47.408;18.822;2022-09-16T00:40:33;16.56;95.46
70166;SHT30;57541;47.408;18.822;2022-09-16T00:41:05;16.51;95.68
70166;SHT30;57541;47.408;18.822;2022-09-16T00:41:37;16.47;95.64
70166;SHT30;57541;47.408;18.822;2022-09-16T00:42:10;16.49;95.75
70166;SHT30;57541;47.408;18.822;2022-09-16T00:42:42;16.45;95.77
70166;SHT30;57541;47.408;18.822;2022-09-16T00:43:18;16.44;95.60
70166;SHT30;57541;47.408;18.822;2022-09-16T00:44:50;16.48;95.61
70166;SHT30;57541;47.408;18.822;2022-09-16T00:45:24;16.52;95.53
70166;SHT30;57541;47.408;18.822;2022-09-16T00:46:01;16.52;95.36
70166;SHT30;57541;47.408;18.822;2022-09-16T00:46:43;16.56;95.58
70166;SHT30;57541;47.408;18.822;2022-09-16T00:47:41;16.51;95.60
70166;SHT30;57541;47.408;18.822;2022-09-16T00:48:14;16.51;95.44
70166;SHT30;57541;47.408;18.822;2022-09-16T00:48:47;16.51;95.26
70166;SHT30;57541;47.408;18.822;2022-09-16T00:49:28;16.49;95.40
70166;SHT30;57541;47.408;18.822;2022-09-16T00:50:06;16.45;95.46
70166;SHT30;57541;47.408;18.822;2022-09-16T00:51:12;16.44;95.34
70166;SHT30;57541;47.408;18.822;2022-09-16T00:51:45;16.48;95.53
70166;SHT30;57541;47.408;18.822;2022-09-16T00:52:21;16.47;95.41
70166;SHT30;57541;47.408;18.822;2022-09-16T00:52:54;16.45;95.28
70166;SHT30;57541;47.408;18.822;2022-09-16T00:53:28;16.47;95.30
70166;SHT30;57541;47.408;18.822;2022-09-16T00:54:03;16.47;95.18
70166;SHT30;57541;47.408;18.822;2022-09-16T00:54:37;16.45;95.18
70166;SHT30;57541;47.408;18.822;2022-09-16T00:55:17;16.47;95.19
70166;SHT30;57541;47.408;18.822;2022-09-16T00:55:52;16.48;95.30
70166;SHT30;57541;47.408;18.822;2022-09-16T00:56:26;16.45;95.27
70166;SHT30;57541;47.408;18.822;2022-09-16T00:57:00;16.41;95.14
70166;SHT30;57541;47.408;18.822;2022-09-16T00:57:33;16.47;95.21
70166;SHT30;57541;47.408;18.822;2022-09-16T00:58:28;16.42;95.25
70166;SHT30;57541;47.408;18.822;2022-09-16T00:59:45;16.41;95.20
70166;SHT30;57541;47.408;18.822;2022-09-16T01:00:17;16.39;95.26
70166;SHT30;57541;47.408;18.822;2022-09-16T01:00:49;16.38;95.27
70166;SHT30;57541;47.408;18.822;2022-09-16T01:01:21;16.41;95.43
70166;SHT30;57541;47.408;18.822;2022-09-16T01:01:54;16.39;95.57
70166;SHT30;57541;47.408;18.822;2022-09-16T01:02:27;16.33;95.49
70166;SHT30;57541;47.408;18.822;2022-09-16T01:02:59;16.33;95.41
70166;SHT30;57541;47.408;18.822;2022-09-16T01:03:32;16.29;95.64
70166;SHT30;57541;47.408;18.822;2022-09-16T01:04:12;16.29;95.70
70166;SHT30;57541;47.408;18.822;2022-09-16T01:04:56;16.26;95.78
70166;SHT30;57541;47.408;18.822;2022-09-16T01:05:30;16.29;95.45
70166;SHT30;57541;47.408;18.822;2022-09-16T01:06:03;16.22;95.63
70166;SHT30;57541;47.408;18.822;2022-09-16T01:06:36;16.18;95.46
70166;SHT30;57541;47.408;18.822;2022-09-16T01:07:09;16.21;95.66
70166;SHT30;57541;47.408;18.822;2022-09-16T01:07:46;16.20;95.54
70166;SHT30;57541;47.408;18.822;2022-09-16T01:08:18;16.17;95.40
70166;SHT30;57541;47.408;18.822;2022-09-16T01:08:50;16.15;95.47
70166;SHT30;57541;47.408;18.822;2022-09-16T01:09:22;16.21;95.48
70166;SHT30;57541;47.408;18.822;2022-09-16T01:09:56;16.15;95.41
70166;SHT30;57541;47.408;18.822;2022-09-16T01:10:28;16.14;95.39
70166;SHT30;57541;47.408;18.822;2022-09-16T01:10:59;16.12;95.39
70166;SHT30;57541;47.408;18.822;2022-09-16T01:11:31;16.14;95.54
70166;SHT30;57541;47.408;18.822;2022-09-16T01:12:03;16.14;95.50
70166;SHT30;57541;47.408;18.822;2022-09-16T01:12:35;16.10;95.53
70166;SHT30;57541;47.408;18.822;2022-09-16T01:13:09;16.10;95.33
70166;SHT30;57541;47.408;18.822;2022-09-16T01:13:42;16.08;95.56
70166;SHT30;57541;47.408;18.822;2022-09-16T01:14:15;16.05;95.41
70166;SHT30;57541;47.408;18.822;2022-09-16T01:15:06;16.04;95.44
70166;SHT30;57541;47.408;18.822;2022-09-16T01:16:09;16.04;95.67
70166;SHT30;57541;47.408;18.822;2022-09-16T01:16:48;16.01;95.60
70166;SHT30;57541;47.408;18.822;2022-09-16T01:17:39;15.98;95.61
70166;SHT30;57541;47.408;18.822;2022-09-16T01:18:35;15.98;95.70
70166;SHT30;57541;47.408;18.822;2022-09-16T01:22:45;15.90;95.75
70166;SHT30;57541;47.408;18.822;2022-09-16T01:27:08;15.91;95.75
70166;SHT30;57541;47.408;18.822;2022-09-16T01:27:18;15.91;95.70
70166;SHT30;57541;47.408;18.822;2022-09-16T01:29:18;15.96;95.60
70166;SHT30;57541;47.408;18.822;2022-09-16T01:30:56;15.90;95.60
70166;SHT30;57541;47.408;18.822;2022-09-16T01:31:42;15.90;95.84
70166;SHT30;57541;47.408;18.822;2022-09-16T01:33:30;15.93;95.84
70166;SHT30;57541;47.408;18.822;2022-09-16T01:40:56;15.86;95.65
70166;SHT30;57541;47.408;18.822;2022-09-16T01:43:54;15.83;95.61
70166;SHT30;57541;47.408;18.822;2022-09-16T01:46:25;15.83;95.75
70166;SHT30;57541;47.408;18.822;2022-09-16T01:47:04;15.79;95.98
70166;SHT30;57541;47.408;18.822;2022-09-16T01:47:46;15.80;95.74
70166;SHT30;57541;47.408;18.822;2022-09-16T01:48:36;15.79;95.95
70166;SHT30;57541;47.408;18.822;2022-09-16T01:49:41;15.83;95.67
70166;SHT30;57541;47.408;18.822;2022-09-16T01:52:56;15.81;95.59
70166;SHT30;57541;47.408;18.822;2022-09-16T01:53:35;15.83;95.56
70166;SHT30;57541;47.408;18.822;2022-09-16T01:54:55;15.83;95.62
70166;SHT30;57541;47.408;18.822;2022-09-16T01:56:36;15.83;95.28
70166;SHT30;57541;47.408;18.822;2022-09-16T01:57:20;15.83;95.38
70166;SHT30;57541;47.408;18.822;2022-09-16T01:58:01;15.86;95.33
70166;SHT30;57541;47.408;18.822;2022-09-16T01:59:40;15.87;95.37
70166;SHT30;57541;47.408;18.822;2022-09-16T02:00:13;15.90;95.40
70166;SHT30;57541;47.408;18.822;2022-09-16T02:01:09;15.84;95.37
70166;SHT30;57541;47.408;18.822;2022-09-16T02:01:51;15.83;95.34
70166;SHT30;57541;47.408;18.822;2022-09-16T02:02:48;15.83;95.40
70166;SHT30;57541;47.408;18.822;2022-09-16T02:03:24;15.84;95.50
70166;SHT30;57541;47.408;18.822;2022-09-16T02:04:03;15.80;95.79
70166;SHT30;57541;47.408;18.822;2022-09-16T02:04:42;15.79;95.64
70166;SHT30;57541;47.408;18.822;2022-09-16T02:05:26;15.79;95.48
70166;SHT30;57541;47.408;18.822;2022-09-16T02:06:02;15.73;95.75
70166;SHT30;57541;47.408;18.822;2022-09-16T02:06:37;15.76;95.80
70166;SHT30;57541;47.408;18.822;2022-09-16T02:07:12;15.74;95.79
70166;SHT30;57541;47.408;18.822;2022-09-16T02:07:50;15.77;95.69
70166;SHT30;57541;47.408;18.822;2022-09-16T02:08:28;15.76;95.79
70166;SHT30;57541;47.408;18.822;2022-09-16T02:09:04;15.76;95.76
70166;SHT30;57541;47.408;18.822;2022-09-16T02:09:44;15.76;95.85
70166;SHT30;57541;47.408;18.822;2022-09-16T02:10:28;15.79;95.69
70166;SHT30;57541;47.408;18.822;2022-09-16T02:11:04;15.74;95.62
70166;SHT30;57541;47.408;18.822;2022-09-16T02:11:38;15.79;95.68
70166;SHT30;57541;47.408;18.822;2022-09-16T02:12:19;15.76;95.73
70166;SHT30;57541;47.408;18.822;2022-09-16T02:12:55;15.76;95.64
70166;SHT30;57541;47.408;18.822;2022-09-16T02:13:33;15.74;95.72
70166;SHT30;57541;47.408;18.822;2022-09-16T02:14:09;15.74;95.68
70166;SHT30;57541;47.408;18.822;2022-09-16T02:14:44;15.73;95.63
70166;SHT30;57541;47.408;18.822;2022-09-16T02:15:19;15.73;95.68
70166;SHT30;57541;47.408;18.822;2022-09-16T02:15:54;15.70;95.61
70166;SHT30;57541;47.408;18.822;2022-09-16T02:16:35;15.69;95.59
70166;SHT30;57541;47.408;18.822;2022-09-16T02:17:14;15.73;95.68
70166;SHT30;57541;47.408;18.822;2022-09-16T02:18:01;15.67;96.18
70166;SHT30;57541;47.408;18.822;2022-09-16T02:18:35;15.66;95.64
70166;SHT30;57541;47.408;18.822;2022-09-16T02:19:11;15.67;95.46
70166;SHT30;57541;47.408;18.822;2022-09-16T02:19:55;15.67;95.51
70166;SHT30;57541;47.408;18.822;2022-09-16T02:20:30;15.69;95.40
70166;SHT30;57541;47.408;18.822;2022-09-16T02:21:04;15.64;95.81
70166;SHT30;57541;47.408;18.822;2022-09-16T02:21:38;15.69;95.72
70166;SHT30;57541;47.408;18.822;2022-09-16T02:22:24;15.66;95.90
70166;SHT30;57541;47.408;18.822;2022-09-16T02:23:03;15.64;95.93
70166;SHT30;57541;47.408;18.822;2022-09-16T02:23:40;15.64;96.07
70166;SHT30;57541;47.408;18.822;2022-09-16T02:24:16;15.67;96.00
70166;SHT30;57541;47.408;18.822;2022-09-16T02:24:49;15.66;95.69
70166;SHT30;57541;47.408;18.822;2022-09-16T02:25:22;15.61;95.48
70166;SHT30;57541;47.408;18.822;2022-09-16T02:25:55;15.61;95.75
70166;SHT30;57541;47.408;18.822;2022-09-16T02:26:32;15.63;95.85
70166;SHT30;57541;47.408;18.822;2022-09-16T02:27:08;15.61;95.83
70166;SHT30;57541;47.408;18.822;2022-09-16T02:27:42;15.63;95.78
70166;SHT30;57541;47.408;18.822;2022-09-16T02:28:19;15.60;95.69
70166;SHT30;57541;47.408;18.822;2022-09-16T02:28:52;15.57;95.86
70166;SHT30;57541;47.408;18.822;2022-09-16T02:29:29;15.54;95.81
70166;SHT30;57541;47.408;18.822;2022-09-16T02:30:08;15.56;95.71
70166;SHT30;57541;47.408;18.822;2022-09-16T02:30:43;15.56;95.72
70166;SHT30;57541;47.408;18.822;2022-09-16T02:31:16;15.56;95.70
70166;SHT30;57541;47.408;18.822;2022-09-16T02:31:52;15.56;95.55
70166;SHT30;57541;47.408;18.822;2022-09-16T02:32:27;15.56;95.41
70166;SHT30;57541;47.408;18.822;2022-09-16T02:33:05;15.56;95.68
70166;SHT30;57541;47.408;18.822;2022-09-16T02:33:44;15.53;95.76
70166;SHT30;57541;47.408;18.822;2022-09-16T02:34:24;15.54;95.40
70166;SHT30;57541;47.408;18.822;2022-09-16T02:34:57;15.56;95.59
70166;SHT30;57541;47.408;18.822;2022-09-16T02:35:30;15.56;95.41
70166;SHT30;57541;47.408;18.822;2022-09-16T02:36:04;15.57;95.11
70166;SHT30;57541;47.408;18.822;2022-09-16T02:36:39;15.56;95.42
70166;SHT30;57541;47.408;18.822;2022-09-16T02:37:25;15.53;95.46
70166;SHT30;57541;47.408;18.822;2022-09-16T02:38:03;15.50;95.38
70166;SHT30;57541;47.408;18.822;2022-09-16T02:38:40;15.49;95.05
70166;SHT30;57541;47.408;18.822;2022-09-16T02:39:19;15.47;95.40
70166;SHT30;57541;47.408;18.822;2022-09-16T02:39:55;15.49;95.35
70166;SHT30;57541;47.408;18.822;2022-09-16T02:40:48;15.50;95.44
70166;SHT30;57541;47.408;18.822;2022-09-16T02:41:22;15.52;95.67
70166;SHT30;57541;47.408;18.822;2022-09-16T02:41:54;15.52;94.99
70166;SHT30;57541;47.408;18.822;2022-09-16T02:42:28;15.56;94.92
70166;SHT30;57541;47.408;18.822;2022-09-16T02:43:00;15.60;94.78
70166;SHT30;57541;47.408;18.822;2022-09-16T02:43:32;15.56;95.12
70166;SHT30;57541;47.408;18.822;2022-09-16T02:44:04;15.56;95.24
70166;SHT30;57541;47.408;18.822;2022-09-16T02:44:36;15.60;94.86
70166;SHT30;57541;47.408;18.822;2022-09-16T02:45:07;15.60;94.87
70166;SHT30;57541;47.408;18.822;2022-09-16T02:46:44;15.60;95.25
70166;SHT30;57541;47.408;18.822;2022-09-16T02:49:10;15.59;95.12
70166;SHT30;57541;47.408;18.822;2022-09-16T02:49:54;15.60;95.12
70166;SHT30;57541;47.408;18.822;2022-09-16T02:50:51;15.53;95.08
70166;SHT30;57541;47.408;18.822;2022-09-16T02:51:45;15.54;95.25
70166;SHT30;57541;47.408;18.822;2022-09-16T02:52:36;15.54;94.63
70166;SHT30;57541;47.408;18.822;2022-09-16T02:53:35;15.57;94.81
70166;SHT30;57541;47.408;18.822;2022-09-16T02:54:24;15.56;94.53
70166;SHT30;57541;47.408;18.822;2022-09-16T02:55:10;15.56;94.79
70166;SHT30;57541;47.408;18.822;2022-09-16T02:57:02;15.59;94.54
70166;SHT30;57541;47.408;18.822;2022-09-16T02:57:35;15.60;94.61
70166;SHT30;57541;47.408;18.822;2022-09-16T02:58:06;15.59;94.56
70166;SHT30;57541;47.408;18.822;2022-09-16T02:58:39;15.60;94.57
70166;SHT30;57541;47.408;18.822;2022-09-16T02:59:11;15.59;94.81
70166;SHT30;57541;47.408;18.822;2022-09-16T02:59:43;15.61;94.85
70166;SHT30;57541;47.408;18.822;2022-09-16T03:00:15;15.60;94.84
70166;SHT30;57541;47.408;18.822;2022-09-16T03:00:50;15.63;94.23
70166;SHT30;57541;47.408;18.822;2022-09-16T03:01:22;15.63;94.50
70166;SHT30;57541;47.408;18.822;2022-09-16T03:01:54;15.63;94.16
70166;SHT30;57541;47.408;18.822;2022-09-16T03:02:26;15.66;94.81
70166;SHT30;57541;47.408;18.822;2022-09-16T03:02:58;15.61;94.87
70166;SHT30;57541;47.408;18.822;2022-09-16T03:03:30;15.66;94.80
70166;SHT30;57541;47.408;18.822;2022-09-16T03:04:02;15.59;94.83
70166;SHT30;57541;47.408;18.822;2022-09-16T03:04:34;15.59;95.05
70166;SHT30;57541;47.408;18.822;2022-09-16T03:05:07;15.54;94.72
70166;SHT30;57541;47.408;18.822;2022-09-16T03:06:30;15.56;94.69
70166;SHT30;57541;47.408;18.822;2022-09-16T03:07:08;15.56;95.05
70166;SHT30;57541;47.408;18.822;2022-09-16T03:07:41;15.54;94.81
70166;SHT30;57541;47.408;18.822;2022-09-16T03:08:13;15.60;94.85
70166;SHT30;57541;47.408;18.822;2022-09-16T03:08:45;15.56;95.05
70166;SHT30;57541;47.408;18.822;2022-09-16T03:09:17;15.54;95.22
70166;SHT30;57541;47.408;18.822;2022-09-16T03:09:54;15.53;94.95
70166;SHT30;57541;47.408;18.822;2022-09-16T03:10:28;15.50;94.59
70166;SHT30;57541;47.408;18.822;2022-09-16T03:11:37;15.57;95.06
70166;SHT30;57541;47.408;18.822;2022-09-16T03:13:19;15.61;94.76
70166;SHT30;57541;47.408;18.822;2022-09-16T03:15:57;15.53;95.51
70166;SHT30;57541;47.408;18.822;2022-09-16T03:22:45;15.49;95.08
70166;SHT30;57541;47.408;18.822;2022-09-16T03:25:06;15.42;95.34
70166;SHT30;57541;47.408;18.822;2022-09-16T03:27:19;15.40;95.71
70166;SHT30;57541;47.408;18.822;2022-09-16T03:28:05;15.39;95.40
70166;SHT30;57541;47.408;18.822;2022-09-16T03:30:16;15.38;95.49
70166;SHT30;57541;47.408;18.822;2022-09-16T03:31:17;15.38;95.28
70166;SHT30;57541;47.408;18.822;2022-09-16T03:32:43;15.40;95.22
70166;SHT30;57541;47.408;18.822;2022-09-16T03:33:40;15.39;95.01
70166;SHT30;57541;47.408;18.822;2022-09-16T03:34:24;15.38;95.15
70166;SHT30;57541;47.408;18.822;2022-09-16T03:35:51;15.38;95.58
70166;SHT30;57541;47.408;18.822;2022-09-16T03:36:27;15.35;95.51
70166;SHT30;57541;47.408;18.822;2022-09-16T03:37:09;15.31;95.70
70166;SHT30;57541;47.408;18.822;2022-09-16T03:37:43;15.35;95.77
70166;SHT30;57541;47.408;18.822;2022-09-16T03:38:16;15.36;95.41
70166;SHT30;57541;47.408;18.822;2022-09-16T03:38:48;15.35;95.12
70166;SHT30;57541;47.408;18.822;2022-09-16T03:39:21;15.36;95.35
70166;SHT30;57541;47.408;18.822;2022-09-16T03:39:58;15.38;95.03
70166;SHT30;57541;47.408;18.822;2022-09-16T03:40:32;15.36;95.35
70166;SHT30;57541;47.408;18.822;2022-09-16T03:41:06;15.35;95.03
70166;SHT30;57541;47.408;18.822;2022-09-16T03:41:38;15.38;95.06
70166;SHT30;57541;47.408;18.822;2022-09-16T03:42:11;15.39;94.86
70166;SHT30;57541;47.408;18.822;2022-09-16T03:42:43;15.40;95.09
70166;SHT30;57541;47.408;18.822;2022-09-16T03:43:16;15.43;94.96
70166;SHT30;57541;47.408;18.822;2022-09-16T03:43:52;15.40;94.98
70166;SHT30;57541;47.408;18.822;2022-09-16T03:44:35;15.42;95.16
70166;SHT30;57541;47.408;18.822;2022-09-16T03:45:09;15.39;95.11
70166;SHT30;57541;47.408;18.822;2022-09-16T03:45:43;15.35;95.02
70166;SHT30;57541;47.408;18.822;2022-09-16T03:46:15;15.36;95.00
70166;SHT30;57541;47.408;18.822;2022-09-16T03:46:46;15.33;95.21
70166;SHT30;57541;47.408;18.822;2022-09-16T03:47:18;15.39;95.16
70166;SHT30;57541;47.408;18.822;2022-09-16T03:47:51;15.38;95.08
70166;SHT30;57541;47.408;18.822;2022-09-16T03:48:23;15.40;95.04
70166;SHT30;57541;47.408;18.822;2022-09-16T03:48:55;15.40;94.92
70166;SHT30;57541;47.408;18.822;2022-09-16T03:49:27;15.36;94.70
70166;SHT30;57541;47.408;18.822;2022-09-16T03:50:00;15.36;94.65
70166;SHT30;57541;47.408;18.822;2022-09-16T03:50:32;15.39;94.63
70166;SHT30;57541;47.408;18.822;2022-09-16T03:51:03;15.39;94.63
70166;SHT30;57541;47.408;18.822;2022-09-16T03:51:35;15.39;94.61
70166;SHT30;57541;47.408;18.822;2022-09-16T03:52:06;15.42;94.76
70166;SHT30;57541;47.408;18.822;2022-09-16T03:52:39;15.42;94.76
70166;SHT30;57541;47.408;18.822;2022-09-16T03:53:10;15.39;94.79
70166;SHT30;57541;47.408;18.822;2022-09-16T03:53:42;15.38;94.68
70166;SHT30;57541;47.408;18.822;2022-09-16T03:54:14;15.38;94.88
70166;SHT30;57541;47.408;18.822;2022-09-16T03:54:45;15.40;95.44
70166;SHT30;57541;47.408;18.822;2022-09-16T03:55:17;15.40;94.68
70166;SHT30;57541;47.408;18.822;2022-09-16T03:55:49;15.40;94.82
70166;SHT30;57541;47.408;18.822;2022-09-16T03:56:22;15.40;94.66
70166;SHT30;57541;47.408;18.822;2022-09-16T03:56:54;15.40;94.92
70166;SHT30;57541;47.408;18.822;2022-09-16T03:57:26;15.42;94.54
70166;SHT30;57541;47.408;18.822;2022-09-16T03:57:58;15.44;94.59
70166;SHT30;57541;47.408;18.822;2022-09-16T03:58:30;15.44;94.32
70166;SHT30;57541;47.408;18.822;2022-09-16T03:59:01;15.46;94.74
70166;SHT30;57541;47.408;18.822;2022-09-16T03:59:33;15.43;94.44
70166;SHT30;57541;47.408;18.822;2022-09-16T04:00:05;15.47;94.60
70166;SHT30;57541;47.408;18.822;2022-09-16T04:00:38;15.42;94.54
70166;SHT30;57541;47.408;18.822;2022-09-16T04:01:09;15.44;94.71
70166;SHT30;57541;47.408;18.822;2022-09-16T04:01:41;15.42;94.85
70166;SHT30;57541;47.408;18.822;2022-09-16T04:02:13;15.42;94.70
70166;SHT30;57541;47.408;18.822;2022-09-16T04:02:44;15.43;94.76
70166;SHT30;57541;47.408;18.822;2022-09-16T04:03:16;15.39;94.65
70166;SHT30;57541;47.408;18.822;2022-09-16T04:03:48;15.43;94.73
70166;SHT30;57541;47.408;18.822;2022-09-16T04:04:19;15.44;94.74
70166;SHT30;57541;47.408;18.822;2022-09-16T04:04:51;15.44;94.66
70166;SHT30;57541;47.408;18.822;2022-09-16T04:05:23;15.43;94.52
70166;SHT30;57541;47.408;18.822;2022-09-16T04:05:56;15.42;94.67
70166;SHT30;57541;47.408;18.822;2022-09-16T04:06:27;15.42;94.47
70166;SHT30;57541;47.408;18.822;2022-09-16T04:06:59;15.38;94.37
70166;SHT30;57541;47.408;18.822;2022-09-16T04:07:31;15.40;94.13
70166;SHT30;57541;47.408;18.822;2022-09-16T04:08:03;15.38;94.25
70166;SHT30;57541;47.408;18.822;2022-09-16T04:08:35;15.43;94.22
70166;SHT30;57541;47.408;18.822;2022-09-16T04:09:09;15.40;94.06
70166;SHT30;57541;47.408;18.822;2022-09-16T04:09:42;15.43;94.01
70166;SHT30;57541;47.408;18.822;2022-09-16T04:10:14;15.42;94.59
70166;SHT30;57541;47.408;18.822;2022-09-16T04:11:00;15.42;94.26
70166;SHT30;57541;47.408;18.822;2022-09-16T04:11:32;15.44;94.23
70166;SHT30;57541;47.408;18.822;2022-09-16T04:12:05;15.43;94.80
70166;SHT30;57541;47.408;18.822;2022-09-16T04:12:38;15.39;94.28
70166;SHT30;57541;47.408;18.822;2022-09-16T04:13:09;15.40;94.51
70166;SHT30;57541;47.408;18.822;2022-09-16T04:13:41;15.43;94.11
70166;SHT30;57541;47.408;18.822;2022-09-16T04:14:12;15.46;94.03
70166;SHT30;57541;47.408;18.822;2022-09-16T04:14:44;15.52;94.28
70166;SHT30;57541;47.408;18.822;2022-09-16T04:15:15;15.49;94.51
70166;SHT30;57541;47.408;18.822;2022-09-16T04:15:47;15.52;94.39
70166;SHT30;57541;47.408;18.822;2022-09-16T04:16:20;15.50;93.96
70166;SHT30;57541;47.408;18.822;2022-09-16T04:16:53;15.50;93.79
70166;SHT30;57541;47.408;18.822;2022-09-16T04:17:25;15.49;94.32
70166;SHT30;57541;47.408;18.822;2022-09-16T04:17:56;15.46;94.06
70166;SHT30;57541;47.408;18.822;2022-09-16T04:18:31;15.49;94.18
70166;SHT30;57541;47.408;18.822;2022-09-16T04:19:03;15.44;94.16
70166;SHT30;57541;47.408;18.822;2022-09-16T04:19:35;15.47;94.10
70166;SHT30;57541;47.408;18.822;2022-09-16T04:20:08;15.49;94.07
70166;SHT30;57541;47.408;18.822;2022-09-16T04:20:39;15.47;94.54
70166;SHT30;57541;47.408;18.822;2022-09-16T04:21:11;15.49;94.77
70166;SHT30;57541;47.408;18.822;2022-09-16T04:21:42;15.50;94.67
70166;SHT30;57541;47.408;18.822;2022-09-16T04:22:14;15.46;94.36
70166;SHT30;57541;47.408;18.822;2022-09-16T04:22:46;15.44;94.45
70166;SHT30;57541;47.408;18.822;2022-09-16T04:23:17;15.47;94.43
70166;SHT30;57541;47.408;18.822;2022-09-16T04:23:49;15.46;94.81
70166;SHT30;57541;47.408;18.822;2022-09-16T04:24:20;15.43;94.74
70166;SHT30;57541;47.408;18.822;2022-09-16T04:24:52;15.42;94.60
70166;SHT30;57541;47.408;18.822;2022-09-16T04:25:23;15.46;94.46
70166;SHT30;57541;47.408;18.822;2022-09-16T04:25:59;15.52;94.45
70166;SHT30;57541;47.408;18.822;2022-09-16T04:26:31;15.52;94.36
70166;SHT30;57541;47.408;18.822;2022-09-16T04:27:03;15.56;94.40
70166;SHT30;57541;47.408;18.822;2022-09-16T04:27:34;15.60;94.56
70166;SHT30;57541;47.408;18.822;2022-09-16T04:28:06;15.57;94.52
70166;SHT30;57541;47.408;18.822;2022-09-16T04:28:38;15.57;94.46
70166;SHT30;57541;47.408;18.822;2022-09-16T04:29:10;15.59;94.51